»·PEaware :: N320ER KSAT-KELP

N320ER :: KSAT-KELP

FLIGHT INFORMATION

Flight Status: Arrived
Operator: Privately registered:
United States
More flights under this callsign
Pilot: Jimmy H. (16574)
Aircraft: PIPER PA-28R-201 ARROW
(P28R)
More flights by this aircraft type
Origin: KSAT San Antonio Intl
United States
Destination: KELP El Paso Intl
United States
More flights between these airports :: More routes between these airports
Route:
File this flight plan on PilotEdge
Remarks:
Altitude:
(Current/Filed)
10,500ft
Speed:
(Current/Filed)
140kts
Departed: 13-Dec-17 11:33 AM
Arrived: 13-Dec-17 02:41 PM
Distance/Time
Traveled:
430nm/3:08
Distance/Time
To Go:
Arrived

Flight Plot

Page will automatically refresh every two minutes.

Flight plan parsing failed; only flown route is shown


Map Options




Map Legend


Flown Route
Filed Route
Departure Airport
Arrival Airport
Navaid (VOR, NDB)
Fix

Horizontal Profiles

Position Reports

Time Latitude Longitude Heading Altitude Ground
Speed
13-Dec-17 11:29 29.537501 -98.483462 37 774ft 0kts
13-Dec-17 11:30 29.537501 -98.483462 37 774ft 0kts
13-Dec-17 11:31 29.537501 -98.483462 37 774ft 0kts
13-Dec-17 11:31 29.538247 -98.482768 41 774ft 10kts
13-Dec-17 11:33 29.535433 -98.477928 133 774ft 23kts
13-Dec-17 11:34 29.532101 -98.473624 131 774ft 20kts
13-Dec-17 11:35 29.527727 -98.467949 130 774ft 17kts
13-Dec-17 11:35 29.529499 -98.465077 40 774ft 22kts
13-Dec-17 11:37 29.536247 -98.458398 40 774ft 25kts
13-Dec-17 11:37 29.540269 -98.454445 40 774ft 18kts
13-Dec-17 11:38 29.538708 -98.454640 220 774ft 54kts
13-Dec-17 11:40 29.537533 -98.482688 285 2020ft 80kts
13-Dec-17 11:40 29.543957 -98.498986 285 2949ft 67kts
13-Dec-17 11:41 29.550971 -98.519931 282 3864ft 77kts
13-Dec-17 11:43 29.559814 -98.549457 282 4923ft 93kts
13-Dec-17 11:43 29.566482 -98.572307 282 5773ft 89kts
13-Dec-17 11:44 29.574093 -98.597500 282 6787ft 79kts
13-Dec-17 11:45 29.580838 -98.617663 282 7670ft 66kts
13-Dec-17 11:46 29.588717 -98.643804 283 8221ft 96kts
13-Dec-17 11:47 29.597527 -98.673198 283 8965ft 98kts
13-Dec-17 11:48 29.606232 -98.702486 283 9694ft 97kts
13-Dec-17 11:49 29.614573 -98.730813 283 10089ft 115kts
13-Dec-17 11:50 29.624270 -98.766298 283 10189ft 127kts
13-Dec-17 11:51 29.634749 -98.800221 286 10576ft 121kts
13-Dec-17 11:52 29.647525 -98.838920 286 10481ft 139kts
13-Dec-17 11:53 29.660234 -98.877868 286 10480ft 141kts
13-Dec-17 11:54 29.673195 -98.917583 286 10480ft 141kts
13-Dec-17 11:55 29.686550 -98.958575 286 10480ft 144kts
13-Dec-17 11:56 29.700569 -99.001685 286 10479ft 145kts
13-Dec-17 11:57 29.714655 -99.044967 286 10479ft 145kts
13-Dec-17 11:58 29.728823 -99.088484 286 10461ft 146kts
13-Dec-17 11:59 29.742909 -99.131773 286 10465ft 146kts
13-Dec-17 12:00 29.757124 -99.175427 286 10465ft 146kts
13-Dec-17 12:01 29.771327 -99.218865 286 10465ft 146kts
13-Dec-17 12:02 29.785538 -99.262238 286 10465ft 146kts
13-Dec-17 12:03 29.799784 -99.305627 286 10464ft 146kts
13-Dec-17 12:04 29.814044 -99.348994 286 10464ft 146kts
13-Dec-17 12:05 29.828379 -99.392527 286 10464ft 146kts
13-Dec-17 12:06 29.842556 -99.435515 286 10464ft 146kts
13-Dec-17 12:07 29.856903 -99.478983 286 10454ft 146kts
13-Dec-17 12:09 29.871303 -99.522532 286 10454ft 146kts
13-Dec-17 12:10 29.885737 -99.566118 286 10454ft 145kts
13-Dec-17 12:11 29.900176 -99.609652 286 10454ft 145kts
13-Dec-17 12:12 29.914668 -99.653272 286 10454ft 145kts
13-Dec-17 12:13 29.929101 -99.696645 286 10454ft 145kts
13-Dec-17 12:14 29.943554 -99.740011 286 10453ft 145kts
13-Dec-17 12:15 29.958059 -99.783466 286 10426ft 146kts
13-Dec-17 12:16 29.972252 -99.825840 286 10483ft 143kts
13-Dec-17 12:17 29.985915 -99.866469 286 10490ft 144kts
13-Dec-17 12:18 30.000352 -99.909422 286 10489ft 145kts
13-Dec-17 12:19 30.013798 -99.952561 285 10489ft 145kts
13-Dec-17 12:20 30.026851 -99.996278 285 10489ft 145kts
13-Dec-17 12:21 30.039821 -100.039647 285 10489ft 145kts
13-Dec-17 12:22 30.052916 -100.083373 285 10488ft 145kts
13-Dec-17 12:23 30.066056 -100.127286 284 10493ft 145kts
13-Dec-17 12:24 30.079287 -100.171554 284 10493ft 146kts
13-Dec-17 12:25 30.092500 -100.215713 284 10493ft 146kts
13-Dec-17 12:26 30.105124 -100.259982 283 10518ft 144kts
13-Dec-17 12:27 30.117667 -100.303978 283 10538ft 145kts
13-Dec-17 12:28 30.130297 -100.348298 283 10538ft 145kts
13-Dec-17 12:29 30.142861 -100.392328 283 10538ft 145kts
13-Dec-17 12:30 30.155523 -100.436646 284 10537ft 145kts
13-Dec-17 12:31 30.168126 -100.480687 284 10537ft 145kts
13-Dec-17 12:32 30.180824 -100.524995 284 10537ft 145kts
13-Dec-17 12:33 30.193538 -100.569290 284 10537ft 145kts
13-Dec-17 12:34 30.206777 -100.613592 285 10537ft 145kts
13-Dec-17 12:35 30.220411 -100.657666 285 10537ft 145kts
13-Dec-17 12:36 30.234080 -100.701792 285 10536ft 145kts
13-Dec-17 12:37 30.247725 -100.745772 285 10536ft 145kts
13-Dec-17 12:38 30.261660 -100.789410 285 10536ft 146kts
13-Dec-17 12:39 30.275769 -100.833152 285 10536ft 146kts
13-Dec-17 12:40 30.289958 -100.877092 285 10536ft 146kts
13-Dec-17 12:41 30.304192 -100.921118 285 10536ft 146kts
13-Dec-17 12:42 30.318443 -100.965134 285 10535ft 146kts
13-Dec-17 12:43 30.332722 -101.009173 285 10535ft 146kts
13-Dec-17 12:44 30.346934 -101.052943 285 10535ft 146kts
13-Dec-17 12:45 30.361196 -101.096866 285 10507ft 146kts
13-Dec-17 12:46 30.375397 -101.140642 285 10512ft 147kts
13-Dec-17 12:47 30.389770 -101.184941 285 10512ft 147kts
13-Dec-17 12:48 30.404105 -101.229073 285 10512ft 147kts
13-Dec-17 12:49 30.418518 -101.272935 285 10512ft 147kts
13-Dec-17 12:50 30.433258 -101.316981 285 10511ft 147kts
13-Dec-17 12:51 30.448061 -101.361163 285 10511ft 147kts
13-Dec-17 12:52 30.462875 -101.405326 285 10511ft 147kts
13-Dec-17 12:53 30.476370 -101.449774 282 10511ft 146kts
13-Dec-17 12:54 30.488219 -101.494455 281 10511ft 146kts
13-Dec-17 12:55 30.499985 -101.539370 281 10511ft 146kts
13-Dec-17 12:56 30.511767 -101.584272 281 10510ft 146kts
13-Dec-17 12:57 30.523561 -101.629141 281 10510ft 146kts
13-Dec-17 12:58 30.535393 -101.674078 281 10510ft 146kts
13-Dec-17 12:59 30.547226 -101.718943 281 10510ft 146kts
13-Dec-17 13:00 30.559012 -101.763627 281 10507ft 145kts
13-Dec-17 13:01 30.570739 -101.808273 282 10507ft 145kts
13-Dec-17 13:02 30.582469 -101.852838 282 10506ft 145kts
13-Dec-17 13:03 30.594283 -101.897724 282 10479ft 145kts
13-Dec-17 13:04 30.605973 -101.942002 282 10479ft 145kts
13-Dec-17 13:05 30.617755 -101.986525 282 10479ft 145kts
13-Dec-17 13:06 30.629358 -102.030300 282 10479ft 145kts
13-Dec-17 13:07 30.640660 -102.074626 282 10478ft 140kts
13-Dec-17 13:08 30.650335 -102.118286 281 10466ft 139kts
13-Dec-17 13:09 30.659944 -102.161869 281 10466ft 139kts
13-Dec-17 13:10 30.669572 -102.205448 281 10465ft 139kts
13-Dec-17 13:11 30.679236 -102.249105 281 10465ft 139kts
13-Dec-17 13:12 30.690140 -102.290882 284 10601ft 134kts
13-Dec-17 13:13 30.703271 -102.332392 288 10602ft 138kts
13-Dec-17 13:14 30.717014 -102.374071 288 10602ft 138kts
13-Dec-17 13:15 30.730809 -102.415854 288 10602ft 138kts
13-Dec-17 13:16 30.744598 -102.457572 288 10601ft 138kts
13-Dec-17 13:17 30.758579 -102.499517 288 10601ft 140kts
13-Dec-17 13:18 30.772840 -102.541800 288 10601ft 140kts
13-Dec-17 13:19 30.787120 -102.584094 288 10600ft 140kts
13-Dec-17 13:20 30.801436 -102.626448 288 10600ft 141kts
13-Dec-17 13:21 30.814501 -102.669383 286 10600ft 140kts
13-Dec-17 13:22 30.827318 -102.712255 285 10600ft 140kts
13-Dec-17 13:23 30.839436 -102.755441 285 10600ft 140kts
13-Dec-17 13:24 30.851213 -102.798449 285 10599ft 139kts
13-Dec-17 13:25 30.862952 -102.841307 285 10599ft 139kts
13-Dec-17 13:26 30.874676 -102.884044 285 10599ft 139kts
13-Dec-17 13:27 30.886464 -102.926943 285 10599ft 139kts
13-Dec-17 13:28 30.898235 -102.969712 285 10598ft 138kts
13-Dec-17 13:29 30.910009 -103.012426 285 10598ft 138kts
13-Dec-17 13:30 30.922532 -103.055026 286 10598ft 138kts
13-Dec-17 13:31 30.935086 -103.097433 286 10598ft 138kts
13-Dec-17 13:32 30.947637 -103.139955 286 10603ft 139kts
13-Dec-17 13:33 30.960256 -103.182700 286 10603ft 139kts
13-Dec-17 13:34 30.972270 -103.225676 285 10603ft 139kts
13-Dec-17 13:35 30.984161 -103.268873 285 10602ft 139kts
13-Dec-17 13:36 30.995879 -103.311795 285 10602ft 139kts
13-Dec-17 13:37 31.007606 -103.354683 285 10596ft 139kts
13-Dec-17 13:38 31.019585 -103.398798 285 10437ft 142kts
13-Dec-17 13:39 31.031364 -103.442160 285 10436ft 139kts
13-Dec-17 13:40 31.043071 -103.485127 285 10436ft 138kts
13-Dec-17 13:41 31.054782 -103.528032 285 10436ft 138kts
13-Dec-17 13:42 31.066491 -103.570819 286 10436ft 138kts
13-Dec-17 13:43 31.078976 -103.613419 286 10436ft 138kts
13-Dec-17 13:44 31.091449 -103.655866 286 10435ft 138kts
13-Dec-17 13:45 31.103976 -103.698433 286 10435ft 138kts
13-Dec-17 13:46 31.116480 -103.740856 286 10435ft 138kts
13-Dec-17 13:47 31.128602 -103.783714 286 10435ft 139kts
13-Dec-17 13:48 31.140446 -103.826718 287 10459ft 138kts
13-Dec-17 13:49 31.151838 -103.868931 286 10535ft 138kts
13-Dec-17 13:50 31.162997 -103.912124 286 10535ft 139kts
13-Dec-17 13:50 31.172333 -103.948217 286 10534ft 139kts
13-Dec-17 13:52 31.185453 -103.998859 286 10530ft 139kts
13-Dec-17 13:52 31.194819 -104.034966 286 10525ft 139kts
13-Dec-17 13:53 31.206067 -104.078271 286 10524ft 139kts
13-Dec-17 13:55 31.219203 -104.128886 285 10530ft 140kts
13-Dec-17 13:55 31.228629 -104.165247 285 10529ft 140kts
13-Dec-17 13:56 31.240618 -104.208768 286 10529ft 140kts
13-Dec-17 13:57 31.252732 -104.252218 287 10527ft 141kts
13-Dec-17 13:59 31.266540 -104.304359 286 10528ft 145kts
13-Dec-17 13:59 31.276490 -104.342051 287 10528ft 145kts
13-Dec-17 14:00 31.288274 -104.386571 287 10610ft 143kts
13-Dec-17 14:01 31.300905 -104.431345 288 10610ft 145kts
13-Dec-17 14:02 31.313655 -104.476173 288 10610ft 145kts
13-Dec-17 14:03 31.326466 -104.521146 288 10610ft 145kts
13-Dec-17 14:04 31.339271 -104.566037 288 10609ft 145kts
13-Dec-17 14:05 31.352078 -104.610872 288 10609ft 145kts
13-Dec-17 14:06 31.364937 -104.655862 288 10608ft 146kts
13-Dec-17 14:07 31.377521 -104.701389 287 10601ft 148kts
13-Dec-17 14:08 31.389736 -104.747396 287 10590ft 147kts
13-Dec-17 14:09 31.401986 -104.792977 287 10590ft 146kts
13-Dec-17 14:10 31.414158 -104.838079 287 10590ft 145kts
13-Dec-17 14:11 31.426385 -104.883316 287 10590ft 145kts
13-Dec-17 14:12 31.438573 -104.928340 287 10590ft 145kts
13-Dec-17 14:13 31.450842 -104.973595 287 10589ft 145kts
13-Dec-17 14:14 31.463090 -105.018707 287 10589ft 145kts
13-Dec-17 14:15 31.475325 -105.063704 287 10589ft 145kts
13-Dec-17 14:16 31.487203 -105.107845 286 10592ft 145kts
13-Dec-17 14:17 31.498709 -105.153232 286 10593ft 146kts
13-Dec-17 14:18 31.510123 -105.198853 285 10592ft 146kts
13-Dec-17 14:19 31.520946 -105.244688 285 10592ft 146kts
13-Dec-17 14:20 31.531956 -105.290748 285 10592ft 147kts
13-Dec-17 14:21 31.543092 -105.337103 285 10592ft 148kts
13-Dec-17 14:22 31.554248 -105.383475 285 10593ft 148kts
13-Dec-17 14:24 31.566127 -105.429695 286 10592ft 148kts
13-Dec-17 14:25 31.578116 -105.475958 286 10592ft 148kts
13-Dec-17 14:26 31.590090 -105.522103 286 10592ft 148kts
13-Dec-17 14:27 31.602107 -105.568351 286 10617ft 147kts
13-Dec-17 14:28 31.614080 -105.614332 286 10619ft 147kts
13-Dec-17 14:29 31.626079 -105.660352 286 10619ft 148kts
13-Dec-17 14:30 31.638148 -105.706575 286 10619ft 148kts
13-Dec-17 14:31 31.650199 -105.752671 286 10618ft 148kts
13-Dec-17 14:32 31.662504 -105.799245 286 10591ft 149kts
13-Dec-17 14:33 31.674842 -105.845866 286 10474ft 150kts
13-Dec-17 14:34 31.686892 -105.891702 286 10017ft 146kts
13-Dec-17 14:35 31.698843 -105.937344 287 9558ft 145kts
13-Dec-17 14:36 31.710887 -105.982672 287 9101ft 146kts
13-Dec-17 14:37 31.723216 -106.028139 287 8642ft 146kts
13-Dec-17 14:38 31.735761 -106.073426 287 8181ft 146kts
13-Dec-17 14:39 31.757025 -106.114161 304 7722ft 149kts
13-Dec-17 14:40 31.782021 -106.153287 304 7278ft 150kts
13-Dec-17 14:41 31.790376 -106.197921 277 7021ft 136kts
13-Dec-17 14:42 31.794496 -106.241947 271 6322ft 132kts
13-Dec-17 14:43 31.796881 -106.282778 272 5651ft 112kts
13-Dec-17 14:44 31.798453 -106.316620 271 5023ft 100kts
13-Dec-17 14:45 31.799939 -106.345089 269 4269ft 74kts
13-Dec-17 14:46 31.800957 -106.367476 274 3946ft 44kts
13-Dec-17 14:47 31.800242 -106.370537 183 3945ft 0kts
13-Dec-17 14:48 31.798758 -106.372438 267 3943ft 11kts
13-Dec-17 14:49 31.797921 -106.374877 290 3940ft 1kts
13-Dec-17 14:50 31.797926 -106.374906 258 3940ft 0kts
13-Dec-17 14:51 31.797926 -106.374906 258 3940ft 0kts

Navigation Log

Ident Type
Flight plan parsing failed, navigation log unavailable